sensor_id;sensor_type;location;lat;lon;timestamp;P1;durP1;ratioP1;P2;durP2;ratioP2
23171;SDS011;11754;42.664;23.594;2022-08-21T00:00:23;12.52;;;6.15;;
23171;SDS011;11754;42.664;23.594;2022-08-21T00:02:59;13.93;;;6.78;;
23171;SDS011;11754;42.664;23.594;2022-08-21T00:05:26;12.77;;;7.18;;
23171;SDS011;11754;42.664;23.594;2022-08-21T00:07:57;10.27;;;7.10;;
23171;SDS011;11754;42.664;23.594;2022-08-21T00:10:23;12.77;;;7.60;;
23171;SDS011;11754;42.664;23.594;2022-08-21T00:12:49;11.52;;;7.78;;
23171;SDS011;11754;42.664;23.594;2022-08-21T00:15:17;11.38;;;7.40;;
23171;SDS011;11754;42.664;23.594;2022-08-21T00:17:53;18.77;;;7.80;;
23171;SDS011;11754;42.664;23.594;2022-08-21T00:20:20;11.85;;;7.90;;
23171;SDS011;11754;42.664;23.594;2022-08-21T00:22:46;11.50;;;8.43;;
23171;SDS011;11754;42.664;23.594;2022-08-21T00:25:14;13.65;;;8.20;;
23171;SDS011;11754;42.664;23.594;2022-08-21T00:27:40;11.23;;;8.02;;
23171;SDS011;11754;42.664;23.594;2022-08-21T00:30:07;14.65;;;8.88;;
23171;SDS011;11754;42.664;23.594;2022-08-21T00:32:35;13.00;;;8.45;;
23171;SDS011;11754;42.664;23.594;2022-08-21T00:35:02;12.35;;;8.27;;
23171;SDS011;11754;42.664;23.594;2022-08-21T00:37:29;15.48;;;8.35;;
23171;SDS011;11754;42.664;23.594;2022-08-21T00:39:54;14.05;;;8.55;;
23171;SDS011;11754;42.664;23.594;2022-08-21T00:42:19;11.40;;;8.95;;
23171;SDS011;11754;42.664;23.594;2022-08-21T00:44:46;12.30;;;8.20;;
23171;SDS011;11754;42.664;23.594;2022-08-21T00:47:13;15.57;;;8.30;;
23171;SDS011;11754;42.664;23.594;2022-08-21T00:49:38;16.23;;;8.45;;
23171;SDS011;11754;42.664;23.594;2022-08-21T00:52:05;14.60;;;8.52;;
23171;SDS011;11754;42.664;23.594;2022-08-21T00:54:34;14.27;;;7.22;;
23171;SDS011;11754;42.664;23.594;2022-08-21T00:57:01;15.20;;;7.78;;
23171;SDS011;11754;42.664;23.594;2022-08-21T00:59:30;11.32;;;6.80;;
23171;SDS011;11754;42.664;23.594;2022-08-21T01:02:00;12.70;;;7.35;;
23171;SDS011;11754;42.664;23.594;2022-08-21T01:04:25;14.07;;;8.18;;
23171;SDS011;11754;42.664;23.594;2022-08-21T01:06:51;13.50;;;7.53;;
23171;SDS011;11754;42.664;23.594;2022-08-21T01:09:17;13.13;;;7.70;;
23171;SDS011;11754;42.664;23.594;2022-08-21T01:11:43;11.77;;;6.70;;
23171;SDS011;11754;42.664;23.594;2022-08-21T01:14:10;13.05;;;7.07;;
23171;SDS011;11754;42.664;23.594;2022-08-21T01:16:38;12.93;;;7.00;;
23171;SDS011;11754;42.664;23.594;2022-08-21T01:19:06;12.05;;;6.80;;
23171;SDS011;11754;42.664;23.594;2022-08-21T01:21:31;10.88;;;7.20;;
23171;SDS011;11754;42.664;23.594;2022-08-21T01:23:58;10.43;;;6.30;;
23171;SDS011;11754;42.664;23.594;2022-08-21T01:26:25;11.70;;;6.20;;
23171;SDS011;11754;42.664;23.594;2022-08-21T01:28:58;11.45;;;6.65;;
23171;SDS011;11754;42.664;23.594;2022-08-21T01:31:29;14.63;;;6.55;;
23171;SDS011;11754;42.664;23.594;2022-08-21T01:33:56;11.55;;;6.72;;
23171;SDS011;11754;42.664;23.594;2022-08-21T01:36:22;11.55;;;6.60;;
23171;SDS011;11754;42.664;23.594;2022-08-21T01:38:48;12.00;;;7.40;;
23171;SDS011;11754;42.664;23.594;2022-08-21T01:41:14;13.80;;;7.20;;
23171;SDS011;11754;42.664;23.594;2022-08-21T01:43:41;14.13;;;7.47;;
23171;SDS011;11754;42.664;23.594;2022-08-21T01:46:08;11.48;;;6.97;;
23171;SDS011;11754;42.664;23.594;2022-08-21T01:48:34;12.52;;;7.03;;
23171;SDS011;11754;42.664;23.594;2022-08-21T01:50:59;14.52;;;6.88;;
23171;SDS011;11754;42.664;23.594;2022-08-21T01:53:25;9.95;;;6.65;;
23171;SDS011;11754;42.664;23.594;2022-08-21T01:55:50;11.82;;;6.75;;
23171;SDS011;11754;42.664;23.594;2022-08-21T01:58:15;10.35;;;7.15;;
23171;SDS011;11754;42.664;23.594;2022-08-21T02:00:41;16.10;;;7.03;;
23171;SDS011;11754;42.664;23.594;2022-08-21T02:03:06;10.93;;;7.43;;
23171;SDS011;11754;42.664;23.594;2022-08-21T02:05:32;11.50;;;7.13;;
23171;SDS011;11754;42.664;23.594;2022-08-21T02:07:57;12.02;;;7.75;;
23171;SDS011;11754;42.664;23.594;2022-08-21T02:10:26;15.18;;;8.27;;
23171;SDS011;11754;42.664;23.594;2022-08-21T02:12:55;12.95;;;8.30;;
23171;SDS011;11754;42.664;23.594;2022-08-21T02:15:21;14.68;;;8.13;;
23171;SDS011;11754;42.664;23.594;2022-08-21T02:17:48;14.27;;;8.48;;
23171;SDS011;11754;42.664;23.594;2022-08-21T02:20:21;13.85;;;8.48;;
23171;SDS011;11754;42.664;23.594;2022-08-21T02:22:55;15.48;;;8.43;;
23171;SDS011;11754;42.664;23.594;2022-08-21T02:25:21;17.73;;;9.30;;
23171;SDS011;11754;42.664;23.594;2022-08-21T02:27:48;21.20;;;10.18;;
23171;SDS011;11754;42.664;23.594;2022-08-21T02:30:18;16.70;;;10.38;;
23171;SDS011;11754;42.664;23.594;2022-08-21T02:32:49;13.43;;;10.65;;
23171;SDS011;11754;42.664;23.594;2022-08-21T02:35:14;16.85;;;10.90;;
23171;SDS011;11754;42.664;23.594;2022-08-21T02:37:44;15.57;;;10.55;;
23171;SDS011;11754;42.664;23.594;2022-08-21T02:40:10;20.25;;;12.10;;
23171;SDS011;11754;42.664;23.594;2022-08-21T02:42:36;17.70;;;11.85;;
23171;SDS011;11754;42.664;23.594;2022-08-21T02:45:05;16.20;;;11.80;;
23171;SDS011;11754;42.664;23.594;2022-08-21T02:47:31;18.55;;;12.45;;
23171;SDS011;11754;42.664;23.594;2022-08-21T02:49:56;15.90;;;12.85;;
23171;SDS011;11754;42.664;23.594;2022-08-21T02:52:21;18.42;;;12.45;;
23171;SDS011;11754;42.664;23.594;2022-08-21T02:54:47;21.50;;;13.60;;
23171;SDS011;11754;42.664;23.594;2022-08-21T02:57:13;16.90;;;12.50;;
23171;SDS011;11754;42.664;23.594;2022-08-21T02:59:38;18.65;;;12.23;;
23171;SDS011;11754;42.664;23.594;2022-08-21T03:02:04;20.08;;;11.88;;
23171;SDS011;11754;42.664;23.594;2022-08-21T03:04:29;18.85;;;12.02;;
23171;SDS011;11754;42.664;23.594;2022-08-21T03:06:54;15.77;;;12.38;;
23171;SDS011;11754;42.664;23.594;2022-08-21T03:09:20;17.10;;;11.35;;
23171;SDS011;11754;42.664;23.594;2022-08-21T03:11:45;19.50;;;12.60;;
23171;SDS011;11754;42.664;23.594;2022-08-21T03:14:11;18.48;;;12.23;;
23171;SDS011;11754;42.664;23.594;2022-08-21T03:16:36;17.35;;;12.48;;
23171;SDS011;11754;42.664;23.594;2022-08-21T03:19:02;19.33;;;12.52;;
23171;SDS011;11754;42.664;23.594;2022-08-21T03:21:28;18.80;;;11.50;;
23171;SDS011;11754;42.664;23.594;2022-08-21T03:23:53;16.08;;;11.65;;
23171;SDS011;11754;42.664;23.594;2022-08-21T03:26:19;16.13;;;11.93;;
23171;SDS011;11754;42.664;23.594;2022-08-21T03:28:44;15.45;;;11.27;;
23171;SDS011;11754;42.664;23.594;2022-08-21T03:31:13;17.70;;;10.90;;
23171;SDS011;11754;42.664;23.594;2022-08-21T03:33:38;19.27;;;11.88;;
23171;SDS011;11754;42.664;23.594;2022-08-21T03:36:05;17.58;;;11.15;;
23171;SDS011;11754;42.664;23.594;2022-08-21T03:38:32;16.05;;;11.48;;
23171;SDS011;11754;42.664;23.594;2022-08-21T03:41:00;14.75;;;11.38;;
23171;SDS011;11754;42.664;23.594;2022-08-21T03:43:26;15.52;;;11.75;;
23171;SDS011;11754;42.664;23.594;2022-08-21T03:45:52;17.15;;;12.98;;
23171;SDS011;11754;42.664;23.594;2022-08-21T03:48:18;16.90;;;13.93;;
23171;SDS011;11754;42.664;23.594;2022-08-21T03:50:45;18.73;;;14.38;;
23171;SDS011;11754;42.664;23.594;2022-08-21T03:53:12;21.67;;;14.73;;
23171;SDS011;11754;42.664;23.594;2022-08-21T03:55:38;19.65;;;14.13;;
23171;SDS011;11754;42.664;23.594;2022-08-21T03:58:04;18.50;;;14.43;;
23171;SDS011;11754;42.664;23.594;2022-08-21T04:00:30;19.08;;;14.65;;
23171;SDS011;11754;42.664;23.594;2022-08-21T04:02:56;18.48;;;13.30;;
23171;SDS011;11754;42.664;23.594;2022-08-21T04:05:22;27.08;;;13.40;;
23171;SDS011;11754;42.664;23.594;2022-08-21T04:07:57;20.20;;;12.55;;
23171;SDS011;11754;42.664;23.594;2022-08-21T04:10:24;17.42;;;12.60;;
23171;SDS011;11754;42.664;23.594;2022-08-21T04:12:51;19.30;;;12.50;;
23171;SDS011;11754;42.664;23.594;2022-08-21T04:15:17;23.27;;;12.85;;
23171;SDS011;11754;42.664;23.594;2022-08-21T04:17:43;21.65;;;14.13;;
23171;SDS011;11754;42.664;23.594;2022-08-21T04:20:09;21.77;;;13.48;;
23171;SDS011;11754;42.664;23.594;2022-08-21T04:22:34;16.75;;;12.32;;
23171;SDS011;11754;42.664;23.594;2022-08-21T04:25:00;22.25;;;14.00;;
23171;SDS011;11754;42.664;23.594;2022-08-21T04:27:25;28.52;;;17.98;;
23171;SDS011;11754;42.664;23.594;2022-08-21T04:29:50;29.55;;;16.27;;
23171;SDS011;11754;42.664;23.594;2022-08-21T04:32:23;17.95;;;12.85;;
23171;SDS011;11754;42.664;23.594;2022-08-21T04:34:49;20.95;;;12.93;;
23171;SDS011;11754;42.664;23.594;2022-08-21T04:37:14;17.92;;;13.02;;
23171;SDS011;11754;42.664;23.594;2022-08-21T04:39:41;16.55;;;13.10;;
23171;SDS011;11754;42.664;23.594;2022-08-21T04:42:07;19.75;;;12.48;;
23171;SDS011;11754;42.664;23.594;2022-08-21T04:44:33;15.45;;;11.98;;
23171;SDS011;11754;42.664;23.594;2022-08-21T04:46:59;18.70;;;12.30;;
23171;SDS011;11754;42.664;23.594;2022-08-21T04:49:24;17.38;;;11.95;;
23171;SDS011;11754;42.664;23.594;2022-08-21T04:51:50;14.85;;;12.43;;
23171;SDS011;11754;42.664;23.594;2022-08-21T04:54:19;18.38;;;12.40;;
23171;SDS011;11754;42.664;23.594;2022-08-21T04:56:50;18.45;;;12.70;;
23171;SDS011;11754;42.664;23.594;2022-08-21T04:59:24;17.67;;;13.15;;
23171;SDS011;11754;42.664;23.594;2022-08-21T05:01:53;21.20;;;12.40;;
23171;SDS011;11754;42.664;23.594;2022-08-21T05:04:23;18.48;;;12.68;;
23171;SDS011;11754;42.664;23.594;2022-08-21T05:06:52;16.73;;;11.30;;
23171;SDS011;11754;42.664;23.594;2022-08-21T05:09:19;18.88;;;11.45;;
23171;SDS011;11754;42.664;23.594;2022-08-21T05:11:46;20.52;;;11.32;;
23171;SDS011;11754;42.664;23.594;2022-08-21T05:14:13;19.45;;;11.57;;
23171;SDS011;11754;42.664;23.594;2022-08-21T05:16:39;15.82;;;10.63;;
23171;SDS011;11754;42.664;23.594;2022-08-21T05:19:06;14.07;;;9.30;;
23171;SDS011;11754;42.664;23.594;2022-08-21T05:21:37;14.55;;;8.80;;
23171;SDS011;11754;42.664;23.594;2022-08-21T05:24:05;14.82;;;8.88;;
23171;SDS011;11754;42.664;23.594;2022-08-21T05:26:31;15.40;;;8.82;;
23171;SDS011;11754;42.664;23.594;2022-08-21T05:28:57;15.77;;;8.38;;
23171;SDS011;11754;42.664;23.594;2022-08-21T05:31:23;12.20;;;8.00;;
23171;SDS011;11754;42.664;23.594;2022-08-21T05:33:48;12.05;;;7.63;;
23171;SDS011;11754;42.664;23.594;2022-08-21T05:36:13;13.48;;;8.25;;
23171;SDS011;11754;42.664;23.594;2022-08-21T05:38:39;13.50;;;7.50;;
23171;SDS011;11754;42.664;23.594;2022-08-21T05:41:04;14.23;;;6.93;;
23171;SDS011;11754;42.664;23.594;2022-08-21T05:43:30;13.95;;;7.30;;
23171;SDS011;11754;42.664;23.594;2022-08-21T05:45:55;13.77;;;7.57;;
23171;SDS011;11754;42.664;23.594;2022-08-21T05:48:22;12.60;;;6.85;;
23171;SDS011;11754;42.664;23.594;2022-08-21T05:50:49;11.52;;;6.80;;
23171;SDS011;11754;42.664;23.594;2022-08-21T05:53:16;13.23;;;6.63;;
23171;SDS011;11754;42.664;23.594;2022-08-21T05:55:43;11.65;;;6.30;;
23171;SDS011;11754;42.664;23.594;2022-08-21T05:58:08;10.95;;;6.40;;
23171;SDS011;11754;42.664;23.594;2022-08-21T06:00:34;10.05;;;6.20;;
23171;SDS011;11754;42.664;23.594;2022-08-21T06:02:59;11.20;;;6.18;;
23171;SDS011;11754;42.664;23.594;2022-08-21T06:05:25;8.20;;;5.50;;
23171;SDS011;11754;42.664;23.594;2022-08-21T06:07:51;10.23;;;6.50;;
23171;SDS011;11754;42.664;23.594;2022-08-21T06:10:16;9.77;;;5.68;;
23171;SDS011;11754;42.664;23.594;2022-08-21T06:12:42;11.13;;;5.88;;
23171;SDS011;11754;42.664;23.594;2022-08-21T06:15:08;12.65;;;5.47;;
23171;SDS011;11754;42.664;23.594;2022-08-21T06:17:34;8.00;;;4.80;;
23171;SDS011;11754;42.664;23.594;2022-08-21T06:19:59;7.60;;;5.25;;
23171;SDS011;11754;42.664;23.594;2022-08-21T06:22:24;10.05;;;5.00;;
23171;SDS011;11754;42.664;23.594;2022-08-21T06:24:50;10.50;;;4.57;;
23171;SDS011;11754;42.664;23.594;2022-08-21T06:27:15;10.55;;;4.90;;
23171;SDS011;11754;42.664;23.594;2022-08-21T06:29:42;9.57;;;4.82;;
23171;SDS011;11754;42.664;23.594;2022-08-21T06:32:10;11.27;;;5.05;;
23171;SDS011;11754;42.664;23.594;2022-08-21T06:34:37;11.43;;;5.07;;
23171;SDS011;11754;42.664;23.594;2022-08-21T06:37:04;11.65;;;4.68;;
23171;SDS011;11754;42.664;23.594;2022-08-21T06:39:29;12.32;;;5.20;;
23171;SDS011;11754;42.664;23.594;2022-08-21T06:41:55;8.52;;;4.47;;
23171;SDS011;11754;42.664;23.594;2022-08-21T06:44:21;9.82;;;4.88;;
23171;SDS011;11754;42.664;23.594;2022-08-21T06:46:46;13.52;;;5.05;;
23171;SDS011;11754;42.664;23.594;2022-08-21T06:49:12;12.25;;;5.03;;
23171;SDS011;11754;42.664;23.594;2022-08-21T06:51:38;13.90;;;4.97;;
23171;SDS011;11754;42.664;23.594;2022-08-21T06:54:03;11.50;;;5.60;;
23171;SDS011;11754;42.664;23.594;2022-08-21T06:56:29;11.98;;;5.65;;
23171;SDS011;11754;42.664;23.594;2022-08-21T06:58:54;9.07;;;4.55;;
23171;SDS011;11754;42.664;23.594;2022-08-21T07:01:21;12.15;;;4.90;;
23171;SDS011;11754;42.664;23.594;2022-08-21T07:03:49;8.75;;;4.78;;
23171;SDS011;11754;42.664;23.594;2022-08-21T07:06:14;13.63;;;6.78;;
23171;SDS011;11754;42.664;23.594;2022-08-21T07:08:40;14.00;;;5.38;;
23171;SDS011;11754;42.664;23.594;2022-08-21T07:11:17;11.15;;;4.40;;
23171;SDS011;11754;42.664;23.594;2022-08-21T07:13:44;10.52;;;4.75;;
23171;SDS011;11754;42.664;23.594;2022-08-21T07:16:10;10.82;;;4.10;;
23171;SDS011;11754;42.664;23.594;2022-08-21T07:18:35;11.27;;;4.70;;
23171;SDS011;11754;42.664;23.594;2022-08-21T07:21:01;14.07;;;4.43;;
23171;SDS011;11754;42.664;23.594;2022-08-21T07:23:30;10.45;;;4.65;;
23171;SDS011;11754;42.664;23.594;2022-08-21T07:25:57;9.18;;;4.25;;
23171;SDS011;11754;42.664;23.594;2022-08-21T07:28:25;10.43;;;4.38;;
23171;SDS011;11754;42.664;23.594;2022-08-21T07:30:52;10.35;;;3.83;;
23171;SDS011;11754;42.664;23.594;2022-08-21T07:33:19;10.98;;;4.28;;
23171;SDS011;11754;42.664;23.594;2022-08-21T07:35:45;12.77;;;4.70;;
23171;SDS011;11754;42.664;23.594;2022-08-21T07:38:10;14.52;;;4.15;;
23171;SDS011;11754;42.664;23.594;2022-08-21T07:40:36;9.88;;;4.28;;
23171;SDS011;11754;42.664;23.594;2022-08-21T07:43:01;11.32;;;4.32;;
23171;SDS011;11754;42.664;23.594;2022-08-21T07:45:27;10.18;;;3.97;;
23171;SDS011;11754;42.664;23.594;2022-08-21T07:47:53;10.13;;;3.20;;
23171;SDS011;11754;42.664;23.594;2022-08-21T07:50:19;10.70;;;3.70;;
23171;SDS011;11754;42.664;23.594;2022-08-21T07:52:45;10.65;;;3.80;;
23171;SDS011;11754;42.664;23.594;2022-08-21T07:55:12;17.90;;;4.22;;
23171;SDS011;11754;42.664;23.594;2022-08-21T07:57:40;11.55;;;3.90;;
23171;SDS011;11754;42.664;23.594;2022-08-21T08:00:07;10.73;;;3.63;;
23171;SDS011;11754;42.664;23.594;2022-08-21T08:02:35;12.63;;;3.72;;
23171;SDS011;11754;42.664;23.594;2022-08-21T08:05:01;10.23;;;3.60;;
23171;SDS011;11754;42.664;23.594;2022-08-21T08:07:28;6.43;;;3.00;;
23171;SDS011;11754;42.664;23.594;2022-08-21T08:09:54;8.00;;;3.63;;
23171;SDS011;11754;42.664;23.594;2022-08-21T08:12:19;7.65;;;3.45;;
23171;SDS011;11754;42.664;23.594;2022-08-21T08:14:45;7.70;;;3.10;;
23171;SDS011;11754;42.664;23.594;2022-08-21T08:17:11;8.70;;;3.40;;
23171;SDS011;11754;42.664;23.594;2022-08-21T08:19:37;7.03;;;3.35;;
23171;SDS011;11754;42.664;23.594;2022-08-21T08:22:12;8.38;;;3.40;;
23171;SDS011;11754;42.664;23.594;2022-08-21T08:24:39;17.50;;;3.80;;
23171;SDS011;11754;42.664;23.594;2022-08-21T08:27:04;5.88;;;3.22;;
23171;SDS011;11754;42.664;23.594;2022-08-21T08:29:30;9.90;;;3.65;;
23171;SDS011;11754;42.664;23.594;2022-08-21T08:31:55;11.00;;;4.03;;
23171;SDS011;11754;42.664;23.594;2022-08-21T08:34:21;10.90;;;4.05;;
23171;SDS011;11754;42.664;23.594;2022-08-21T08:36:47;10.85;;;3.85;;
23171;SDS011;11754;42.664;23.594;2022-08-21T08:39:13;8.55;;;3.60;;
23171;SDS011;11754;42.664;23.594;2022-08-21T08:41:38;8.25;;;3.58;;
23171;SDS011;11754;42.664;23.594;2022-08-21T08:44:06;9.73;;;3.38;;
23171;SDS011;11754;42.664;23.594;2022-08-21T08:46:42;8.43;;;3.40;;
23171;SDS011;11754;42.664;23.594;2022-08-21T08:49:19;7.32;;;3.17;;
23171;SDS011;11754;42.664;23.594;2022-08-21T08:51:54;8.70;;;3.58;;
23171;SDS011;11754;42.664;23.594;2022-08-21T08:54:33;9.48;;;3.45;;
23171;SDS011;11754;42.664;23.594;2022-08-21T08:57:08;11.00;;;3.90;;
23171;SDS011;11754;42.664;23.594;2022-08-21T08:59:40;7.75;;;3.70;;
23171;SDS011;11754;42.664;23.594;2022-08-21T09:02:09;14.43;;;5.25;;
23171;SDS011;11754;42.664;23.594;2022-08-21T09:04:36;12.43;;;3.55;;
23171;SDS011;11754;42.664;23.594;2022-08-21T09:15:09;12.43;;;4.03;;
23171;SDS011;11754;42.664;23.594;2022-08-21T09:20:57;13.38;;;4.50;;
23171;SDS011;11754;42.664;23.594;2022-08-21T09:23:55;9.60;;;4.10;;
23171;SDS011;11754;42.664;23.594;2022-08-21T09:26:51;12.07;;;4.40;;
23171;SDS011;11754;42.664;23.594;2022-08-21T09:29:27;7.78;;;4.57;;
23171;SDS011;11754;42.664;23.594;2022-08-21T09:31:55;9.55;;;4.70;;
23171;SDS011;11754;42.664;23.594;2022-08-21T09:34:25;8.98;;;4.63;;
23171;SDS011;11754;42.664;23.594;2022-08-21T09:39:27;11.63;;;4.35;;
23171;SDS011;11754;42.664;23.594;2022-08-21T09:42:05;10.10;;;4.30;;
23171;SDS011;11754;42.664;23.594;2022-08-21T09:44:34;10.82;;;4.45;;
23171;SDS011;11754;42.664;23.594;2022-08-21T09:47:10;11.10;;;4.10;;
23171;SDS011;11754;42.664;23.594;2022-08-21T09:49:41;10.45;;;4.60;;
23171;SDS011;11754;42.664;23.594;2022-08-21T09:52:19;8.63;;;4.47;;
23171;SDS011;11754;42.664;23.594;2022-08-21T09:54:48;9.20;;;4.35;;
23171;SDS011;11754;42.664;23.594;2022-08-21T10:00:10;9.32;;;3.80;;
23171;SDS011;11754;42.664;23.594;2022-08-21T10:02:51;7.63;;;3.70;;
23171;SDS011;11754;42.664;23.594;2022-08-21T10:05:22;6.72;;;3.65;;
23171;SDS011;11754;42.664;23.594;2022-08-21T10:07:50;11.65;;;4.00;;
23171;SDS011;11754;42.664;23.594;2022-08-21T10:10:20;5.95;;;3.25;;
23171;SDS011;11754;42.664;23.594;2022-08-21T10:20:53;18.90;;;5.90;;
23171;SDS011;11754;42.664;23.594;2022-08-21T10:25:57;8.43;;;4.25;;
23171;SDS011;11754;42.664;23.594;2022-08-21T10:29:22;6.13;;;3.97;;
23171;SDS011;11754;42.664;23.594;2022-08-21T10:42:58;11.40;;;5.03;;
23171;SDS011;11754;42.664;23.594;2022-08-21T10:48:29;11.00;;;5.00;;
23171;SDS011;11754;42.664;23.594;2022-08-21T10:56:42;8.20;;;4.40;;
23171;SDS011;11754;42.664;23.594;2022-08-21T11:07:39;7.88;;;4.47;;
23171;SDS011;11754;42.664;23.594;2022-08-21T11:13:19;8.13;;;4.40;;
23171;SDS011;11754;42.664;23.594;2022-08-21T11:16:14;9.65;;;4.28;;
23171;SDS011;11754;42.664;23.594;2022-08-21T11:18:49;7.13;;;3.78;;
23171;SDS011;11754;42.664;23.594;2022-08-21T11:21:27;7.30;;;3.35;;
23171;SDS011;11754;42.664;23.594;2022-08-21T11:23:59;5.55;;;2.80;;
23171;SDS011;11754;42.664;23.594;2022-08-21T11:26:38;9.57;;;2.85;;
23171;SDS011;11754;42.664;23.594;2022-08-21T11:29:21;7.90;;;2.88;;
23171;SDS011;11754;42.664;23.594;2022-08-21T11:34:47;8.52;;;2.38;;
23171;SDS011;11754;42.664;23.594;2022-08-21T11:37:24;5.13;;;2.22;;
23171;SDS011;11754;42.664;23.594;2022-08-21T11:41:08;7.80;;;2.65;;
23171;SDS011;11754;42.664;23.594;2022-08-21T11:45:52;7.88;;;2.40;;
23171;SDS011;11754;42.664;23.594;2022-08-21T11:51:14;11.90;;;3.35;;
23171;SDS011;11754;42.664;23.594;2022-08-21T11:56:37;6.32;;;2.95;;
23171;SDS011;11754;42.664;23.594;2022-08-21T11:59:09;6.10;;;2.60;;
23171;SDS011;11754;42.664;23.594;2022-08-21T12:01:49;6.88;;;3.13;;
23171;SDS011;11754;42.664;23.594;2022-08-21T12:04:23;7.30;;;3.22;;
23171;SDS011;11754;42.664;23.594;2022-08-21T12:06:56;10.25;;;3.30;;
23171;SDS011;11754;42.664;23.594;2022-08-21T12:12:50;5.25;;;3.20;;
23171;SDS011;11754;42.664;23.594;2022-08-21T12:14:48;7.95;;;3.53;;
23171;SDS011;11754;42.664;23.594;2022-08-21T12:17:20;9.38;;;3.83;;
23171;SDS011;11754;42.664;23.594;2022-08-21T12:19:58;8.88;;;3.75;;
23171;SDS011;11754;42.664;23.594;2022-08-21T12:22:35;8.00;;;4.00;;
23171;SDS011;11754;42.664;23.594;2022-08-21T12:25:05;7.60;;;3.80;;
23171;SDS011;11754;42.664;23.594;2022-08-21T12:41:52;12.63;;;5.30;;
23171;SDS011;11754;42.664;23.594;2022-08-21T12:44:34;9.23;;;4.80;;
23171;SDS011;11754;42.664;23.594;2022-08-21T12:49:56;12.23;;;6.50;;
23171;SDS011;11754;42.664;23.594;2022-08-21T12:52:32;9.55;;;6.03;;
23171;SDS011;11754;42.664;23.594;2022-08-21T12:55:00;9.85;;;6.10;;
23171;SDS011;11754;42.664;23.594;2022-08-21T12:57:27;9.00;;;5.55;;
23171;SDS011;11754;42.664;23.594;2022-08-21T12:59:59;12.73;;;5.40;;
23171;SDS011;11754;42.664;23.594;2022-08-21T13:02:30;12.10;;;5.68;;
23171;SDS011;11754;42.664;23.594;2022-08-21T13:04:58;11.02;;;5.25;;
23171;SDS011;11754;42.664;23.594;2022-08-21T13:07:47;11.30;;;5.50;;
23171;SDS011;11754;42.664;23.594;2022-08-21T13:10:18;11.68;;;5.53;;
23171;SDS011;11754;42.664;23.594;2022-08-21T13:12:46;9.68;;;5.35;;
23171;SDS011;11754;42.664;23.594;2022-08-21T13:15:13;10.60;;;5.75;;
23171;SDS011;11754;42.664;23.594;2022-08-21T13:17:40;11.82;;;5.45;;
23171;SDS011;11754;42.664;23.594;2022-08-21T13:22:47;9.70;;;5.32;;
23171;SDS011;11754;42.664;23.594;2022-08-21T13:25:13;11.90;;;5.22;;
23171;SDS011;11754;42.664;23.594;2022-08-21T13:27:41;10.45;;;5.50;;
23171;SDS011;11754;42.664;23.594;2022-08-21T13:30:09;9.85;;;5.55;;
23171;SDS011;11754;42.664;23.594;2022-08-21T13:32:42;10.70;;;5.03;;
23171;SDS011;11754;42.664;23.594;2022-08-21T13:35:15;8.32;;;4.63;;
23171;SDS011;11754;42.664;23.594;2022-08-21T13:37:44;13.32;;;5.32;;
23171;SDS011;11754;42.664;23.594;2022-08-21T13:40:17;13.43;;;5.60;;
23171;SDS011;11754;42.664;23.594;2022-08-21T13:42:51;11.80;;;4.80;;
23171;SDS011;11754;42.664;23.594;2022-08-21T13:45:25;8.57;;;4.97;;
23171;SDS011;11754;42.664;23.594;2022-08-21T13:47:56;11.20;;;5.00;;
23171;SDS011;11754;42.664;23.594;2022-08-21T13:50:22;9.38;;;5.18;;
23171;SDS011;11754;42.664;23.594;2022-08-21T13:53:36;8.88;;;5.72;;
23171;SDS011;11754;42.664;23.594;2022-08-21T13:55:52;9.13;;;5.40;;
23171;SDS011;11754;42.664;23.594;2022-08-21T13:58:30;10.43;;;5.47;;
23171;SDS011;11754;42.664;23.594;2022-08-21T14:01:32;8.68;;;5.30;;
23171;SDS011;11754;42.664;23.594;2022-08-21T14:04:26;9.48;;;5.30;;
23171;SDS011;11754;42.664;23.594;2022-08-21T14:06:55;8.93;;;5.10;;
23171;SDS011;11754;42.664;23.594;2022-08-21T14:09:32;17.17;;;5.75;;
23171;SDS011;11754;42.664;23.594;2022-08-21T14:12:00;9.68;;;5.35;;
23171;SDS011;11754;42.664;23.594;2022-08-21T14:14:32;8.48;;;5.25;;
23171;SDS011;11754;42.664;23.594;2022-08-21T14:17:08;12.60;;;5.55;;
23171;SDS011;11754;42.664;23.594;2022-08-21T14:25:14;11.68;;;5.20;;
23171;SDS011;11754;42.664;23.594;2022-08-21T14:27:54;10.85;;;5.50;;
23171;SDS011;11754;42.664;23.594;2022-08-21T14:30:26;9.30;;;5.30;;
23171;SDS011;11754;42.664;23.594;2022-08-21T14:32:55;7.35;;;5.15;;
23171;SDS011;11754;42.664;23.594;2022-08-21T14:35:20;8.60;;;4.90;;
23171;SDS011;11754;42.664;23.594;2022-08-21T14:37:47;11.43;;;5.25;;
23171;SDS011;11754;42.664;23.594;2022-08-21T14:40:15;11.82;;;6.30;;
23171;SDS011;11754;42.664;23.594;2022-08-21T14:42:42;14.52;;;5.80;;
23171;SDS011;11754;42.664;23.594;2022-08-21T14:45:14;11.90;;;6.43;;
23171;SDS011;11754;42.664;23.594;2022-08-21T14:47:44;11.23;;;5.57;;
23171;SDS011;11754;42.664;23.594;2022-08-21T14:50:11;9.50;;;5.43;;
23171;SDS011;11754;42.664;23.594;2022-08-21T14:52:37;12.85;;;5.55;;
23171;SDS011;11754;42.664;23.594;2022-08-21T14:55:05;10.27;;;5.78;;
23171;SDS011;11754;42.664;23.594;2022-08-21T14:57:32;9.80;;;5.03;;
23171;SDS011;11754;42.664;23.594;2022-08-21T14:59:58;7.45;;;4.68;;
23171;SDS011;11754;42.664;23.594;2022-08-21T15:02:24;10.85;;;4.93;;
23171;SDS011;11754;42.664;23.594;2022-08-21T15:04:50;9.90;;;4.60;;
23171;SDS011;11754;42.664;23.594;2022-08-21T15:07:15;10.73;;;4.75;;
23171;SDS011;11754;42.664;23.594;2022-08-21T15:09:41;9.68;;;4.70;;
23171;SDS011;11754;42.664;23.594;2022-08-21T15:12:06;9.90;;;4.85;;
23171;SDS011;11754;42.664;23.594;2022-08-21T15:14:33;11.88;;;4.55;;
23171;SDS011;11754;42.664;23.594;2022-08-21T15:17:01;10.07;;;4.75;;
23171;SDS011;11754;42.664;23.594;2022-08-21T15:19:28;11.95;;;5.03;;
23171;SDS011;11754;42.664;23.594;2022-08-21T15:21:55;8.10;;;4.63;;
23171;SDS011;11754;42.664;23.594;2022-08-21T15:24:21;9.65;;;4.60;;
23171;SDS011;11754;42.664;23.594;2022-08-21T15:26:46;6.85;;;4.72;;
23171;SDS011;11754;42.664;23.594;2022-08-21T15:29:12;12.10;;;4.32;;
23171;SDS011;11754;42.664;23.594;2022-08-21T15:31:49;9.38;;;4.10;;
23171;SDS011;11754;42.664;23.594;2022-08-21T15:34:17;7.47;;;4.03;;
23171;SDS011;11754;42.664;23.594;2022-08-21T15:36:43;10.00;;;4.30;;
23171;SDS011;11754;42.664;23.594;2022-08-21T15:39:08;9.80;;;4.20;;
23171;SDS011;11754;42.664;23.594;2022-08-21T15:41:33;8.55;;;4.05;;
23171;SDS011;11754;42.664;23.594;2022-08-21T15:43:59;10.80;;;4.25;;
23171;SDS011;11754;42.664;23.594;2022-08-21T15:46:24;11.02;;;4.20;;
23171;SDS011;11754;42.664;23.594;2022-08-21T15:48:50;8.50;;;3.85;;
23171;SDS011;11754;42.664;23.594;2022-08-21T15:51:15;10.10;;;4.18;;
23171;SDS011;11754;42.664;23.594;2022-08-21T15:53:42;9.48;;;4.15;;
23171;SDS011;11754;42.664;23.594;2022-08-21T15:56:27;11.52;;;3.97;;
23171;SDS011;11754;42.664;23.594;2022-08-21T15:58:59;11.90;;;4.43;;
23171;SDS011;11754;42.664;23.594;2022-08-21T16:01:26;9.20;;;4.32;;
23171;SDS011;11754;42.664;23.594;2022-08-21T16:03:53;11.60;;;5.15;;
23171;SDS011;11754;42.664;23.594;2022-08-21T16:06:19;11.05;;;4.47;;
23171;SDS011;11754;42.664;23.594;2022-08-21T16:08:45;6.70;;;4.15;;
23171;SDS011;11754;42.664;23.594;2022-08-21T16:11:11;10.18;;;4.35;;